Time;durP1;ratioP1;P1;durP2;ratioP2;P2;SDS_P1;SDS_P2;PMS_P1;PMS_P2;Temp;Humidity;BMP_temperature;BMP_pressure;BME280_temperature;BME280_humidity;BME280_pressure;Samples;Min_cycle;Max_cycle;Signal;HPM_P1;HPM_P2
2022/03/05 00:01:35;;;;;;;22.10;11.10;;;3.70;66.80;;;;;;5017649;28;20507;-41
2022/03/05 00:04:02;;;;;;;23.80;12.77;;;3.70;66.80;;;;;;5014300;28;20540;-41
2022/03/05 00:06:28;;;;;;;20.13;11.50;;;3.70;66.90;;;;;;5020203;28;20487;-41
2022/03/05 00:08:55;;;;;;;22.47;11.60;;;3.60;66.70;;;;;;5019848;28;20809;-41
2022/03/05 00:11:22;;;;;;;22.93;11.50;;;3.60;66.70;;;;;;5016707;28;20480;-41
2022/03/05 00:13:48;;;;;;;17.37;10.37;;;3.60;66.90;;;;;;5018683;28;20460;-41
2022/03/05 00:16:15;;;;;;;24.30;12.10;;;3.50;67.00;;;;;;5009078;28;20944;-41
2022/03/05 00:18:42;;;;;;;23.40;12.50;;;3.60;67.20;;;;;;5018057;28;20452;-41
2022/03/05 00:21:09;;;;;;;22.40;11.20;;;3.50;67.00;;;;;;5018114;28;20489;-41
2022/03/05 00:23:36;;;;;;;20.93;11.80;;;3.60;67.10;;;;;;5014654;28;21008;-41
2022/03/05 00:26:02;;;;;;;24.47;11.33;;;3.60;67.10;;;;;;5014462;28;20471;-41
2022/03/05 00:28:29;;;;;;;20.50;11.53;;;3.60;67.10;;;;;;5017140;28;20455;-41
2022/03/05 00:31:00;;;;;;;20.70;10.40;;;3.50;67.00;;;;;;5020414;28;20932;-41
2022/03/05 00:33:27;;;;;;;21.77;13.47;;;3.50;67.20;;;;;;5014207;28;20454;-42
2022/03/05 00:35:54;;;;;;;20.67;10.80;;;3.50;67.20;;;;;;4999582;28;20459;-41
2022/03/05 00:38:21;;;;;;;22.37;10.40;;;3.50;66.90;;;;;;5007681;28;20940;-41
2022/03/05 00:40:47;;;;;;;22.27;10.73;;;3.50;67.10;;;;;;5000656;28;20487;-41
2022/03/05 00:43:14;;;;;;;17.30;9.77;;;3.50;67.00;;;;;;5013756;28;20570;-41
2022/03/05 00:45:41;;;;;;;19.33;11.13;;;3.40;67.40;;;;;;5015015;28;20456;-41
2022/03/05 00:48:08;;;;;;;17.40;10.20;;;3.40;67.40;;;;;;5014422;28;21050;-41
2022/03/05 00:50:35;;;;;;;19.40;11.70;;;3.40;67.40;;;;;;5002697;28;20460;-41
2022/03/05 00:53:02;;;;;;;22.20;11.30;;;3.40;67.30;;;;;;5018452;28;20976;-41
2022/03/05 00:55:29;;;;;;;25.17;11.50;;;3.40;67.40;;;;;;5015387;28;20470;-42
2022/03/05 00:57:56;;;;;;;19.73;10.37;;;3.30;67.50;;;;;;5013539;28;20904;-41
2022/03/05 01:00:23;;;;;;;20.03;11.70;;;3.30;67.50;;;;;;5016351;28;20483;-41
2022/03/05 01:02:51;;;;;;;26.17;13.03;;;3.30;67.80;;;;;;5016606;28;20574;-41
2022/03/05 01:05:18;;;;;;;21.13;11.20;;;3.40;67.50;;;;;;5015216;28;20788;-42
2022/03/05 01:07:45;;;;;;;23.60;10.90;;;3.40;67.50;;;;;;5021430;28;20456;-41
2022/03/05 01:10:12;;;;;;;19.97;10.97;;;3.40;67.50;;;;;;5031587;28;20558;-41
2022/03/05 01:12:39;;;;;;;23.47;11.10;;;3.40;67.20;;;;;;5014824;28;20471;-41
2022/03/05 01:15:07;;;;;;;20.20;10.20;;;3.40;67.40;;;;;;5019802;28;20454;-41
2022/03/05 01:17:34;;;;;;;17.87;10.43;;;3.30;67.50;;;;;;4996987;28;20483;-41
2022/03/05 01:20:02;;;;;;;17.97;10.60;;;3.30;67.60;;;;;;5016849;28;20492;-41
2022/03/05 01:22:28;;;;;;;24.93;12.53;;;3.20;67.70;;;;;;5014733;28;20454;-41
2022/03/05 01:24:55;;;;;;;19.70;11.03;;;3.20;67.70;;;;;;5019756;28;20831;-42
2022/03/05 01:27:22;;;;;;;19.70;11.80;;;3.20;67.80;;;;;;5020818;28;20460;-41
2022/03/05 01:29:50;;;;;;;20.97;11.50;;;3.10;68.00;;;;;;5017902;28;20604;-41
2022/03/05 01:32:16;;;;;;;23.40;12.40;;;3.20;68.10;;;;;;5018830;28;20466;-41
2022/03/05 01:34:43;;;;;;;22.27;11.67;;;3.10;68.20;;;;;;5018231;28;20460;-41
2022/03/05 01:37:11;;;;;;;26.70;13.20;;;3.10;68.20;;;;;;5018071;28;20903;-41
2022/03/05 01:39:38;;;;;;;23.50;11.60;;;3.00;68.40;;;;;;5018485;28;20479;-42
2022/03/05 01:42:05;;;;;;;25.40;13.23;;;3.00;68.60;;;;;;5016678;28;20476;-41
2022/03/05 01:44:32;;;;;;;17.83;10.27;;;3.00;68.50;;;;;;5017811;28;20450;-41
2022/03/05 01:47:02;;;;;;;20.93;11.33;;;3.00;68.50;;;;;;5021258;28;20519;-41
2022/03/05 01:49:32;;;;;;;21.13;11.10;;;3.00;68.60;;;;;;5019572;28;20455;-41
2022/03/05 01:51:58;;;;;;;20.43;10.43;;;3.00;68.60;;;;;;5015694;28;20444;-41
2022/03/05 01:54:25;;;;;;;24.20;10.60;;;2.90;68.50;;;;;;5015950;28;20842;-41
2022/03/05 01:56:54;;;;;;;20.67;11.07;;;2.90;68.70;;;;;;5017578;28;20448;-41
2022/03/05 01:59:21;;;;;;;15.67;9.43;;;2.90;68.70;;;;;;5017085;28;20462;-42
2022/03/05 02:01:48;;;;;;;25.90;11.30;;;2.80;68.80;;;;;;5017997;28;20465;-41
2022/03/05 02:04:15;;;;;;;26.57;12.67;;;2.80;69.00;;;;;;5013179;28;20460;-41
2022/03/05 02:06:41;;;;;;;24.27;11.57;;;2.80;69.10;;;;;;5016184;28;20464;-41
2022/03/05 02:09:09;;;;;;;24.10;10.30;;;2.70;69.20;;;;;;5016077;28;20437;-41
2022/03/05 02:11:36;;;;;;;21.27;11.70;;;2.70;69.20;;;;;;5014027;28;20460;-41
2022/03/05 02:14:02;;;;;;;22.37;11.80;;;2.60;69.30;;;;;;5027895;28;20821;-41
2022/03/05 02:16:29;;;;;;;22.47;11.80;;;2.60;69.40;;;;;;5015397;28;21118;-41
2022/03/05 02:18:56;;;;;;;22.60;12.33;;;2.60;69.50;;;;;;5001776;28;20453;-41
2022/03/05 02:21:27;;;;;;;22.53;11.17;;;2.60;69.50;;;;;;5018549;28;20499;-41
2022/03/05 02:23:54;;;;;;;21.23;10.23;;;2.50;69.60;;;;;;5016983;28;20456;-41
2022/03/05 02:26:22;;;;;;;19.60;11.37;;;2.50;69.90;;;;;;5004177;28;20460;-41
2022/03/05 02:28:50;;;;;;;21.20;10.93;;;2.50;70.00;;;;;;5018669;28;20821;-41
2022/03/05 02:31:17;;;;;;;19.60;10.83;;;2.50;70.10;;;;;;5036072;28;20462;-41
2022/03/05 02:33:44;;;;;;;20.40;11.47;;;2.40;70.10;;;;;;5010257;28;20954;-41
2022/03/05 02:36:11;;;;;;;13.47;9.03;;;2.40;70.20;;;;;;5018759;28;20864;-41
2022/03/05 02:38:38;;;;;;;18.80;10.90;;;2.40;70.30;;;;;;5019608;28;20830;-41
2022/03/05 02:41:05;;;;;;;22.50;12.10;;;2.40;70.40;;;;;;5019457;28;20491;-41
2022/03/05 02:43:31;;;;;;;22.57;12.23;;;2.40;70.40;;;;;;5010272;28;20831;-41
2022/03/05 02:45:58;;;;;;;19.13;11.30;;;2.40;70.40;;;;;;5020830;28;20543;-41
2022/03/05 02:48:25;;;;;;;19.53;10.90;;;2.40;70.30;;;;;;5032452;28;20936;-41
2022/03/05 02:50:52;;;;;;;19.97;11.37;;;2.40;70.40;;;;;;5018302;28;20451;-41
2022/03/05 02:53:19;;;;;;;26.10;13.90;;;2.40;70.50;;;;;;5011187;28;20448;-41
2022/03/05 02:55:47;;;;;;;18.30;9.83;;;2.40;70.50;;;;;;5018216;28;20585;-41
2022/03/05 02:58:14;;;;;;;22.13;11.60;;;2.40;70.60;;;;;;5015907;28;20834;-41
2022/03/05 03:00:41;;;;;;;21.63;11.63;;;2.30;70.50;;;;;;5019022;28;20533;-41
2022/03/05 03:03:09;;;;;;;25.87;12.47;;;2.30;70.60;;;;;;5017419;28;20860;-41
2022/03/05 03:05:36;;;;;;;19.53;10.30;;;2.20;70.70;;;;;;5018504;28;20966;-41
2022/03/05 03:08:05;;;;;;;19.57;11.03;;;2.30;70.70;;;;;;5003136;28;20491;-41
2022/03/05 03:10:31;;;;;;;19.00;10.20;;;2.20;70.80;;;;;;5014279;28;20456;-41
2022/03/05 03:12:58;;;;;;;24.20;13.00;;;2.20;70.80;;;;;;5020245;28;20551;-41
2022/03/05 03:15:26;;;;;;;23.70;11.50;;;2.20;70.80;;;;;;5019505;28;20468;-41
2022/03/05 03:17:53;;;;;;;20.40;9.70;;;2.20;70.90;;;;;;5019087;28;20964;-41
2022/03/05 03:20:22;;;;;;;19.33;11.57;;;2.20;70.90;;;;;;5018829;28;21000;-41
2022/03/05 03:22:50;;;;;;;24.87;12.60;;;2.20;70.90;;;;;;5018016;28;20471;-41
2022/03/05 03:25:16;;;;;;;18.90;10.87;;;2.20;71.10;;;;;;5018681;28;20451;-41
2022/03/05 03:27:44;;;;;;;26.37;10.37;;;2.20;71.10;;;;;;5019470;28;20451;-41
2022/03/05 03:30:12;;;;;;;20.63;11.67;;;2.20;71.00;;;;;;5016281;28;20452;-41
2022/03/05 03:32:40;;;;;;;19.27;12.43;;;2.20;71.10;;;;;;5019006;28;20464;-41
2022/03/05 03:35:08;;;;;;;21.00;11.53;;;2.20;71.10;;;;;;5016007;28;20451;-41
2022/03/05 03:37:35;;;;;;;19.03;12.17;;;2.20;71.10;;;;;;5020514;28;20475;-41
2022/03/05 03:40:05;;;;;;;17.80;10.53;;;2.20;71.20;;;;;;5018556;28;20487;-41
2022/03/05 03:42:32;;;;;;;24.97;12.40;;;2.20;71.40;;;;;;5032599;28;20452;-41
2022/03/05 03:44:59;;;;;;;23.43;12.70;;;2.20;71.40;;;;;;5018109;28;20454;-41
2022/03/05 03:47:26;;;;;;;25.57;10.70;;;2.20;71.20;;;;;;5020249;28;20475;-41
2022/03/05 03:49:52;;;;;;;20.60;10.60;;;2.10;71.40;;;;;;5016949;28;20454;-41
2022/03/05 03:52:19;;;;;;;22.00;12.20;;;2.10;71.60;;;;;;5020789;28;20812;-41
2022/03/05 03:54:47;;;;;;;23.60;12.57;;;2.10;71.60;;;;;;5015809;28;20459;-40
2022/03/05 03:57:14;;;;;;;18.10;10.20;;;2.10;71.50;;;;;;5003258;28;20881;-41
2022/03/05 03:59:41;;;;;;;24.73;11.33;;;2.10;71.50;;;;;;5017910;28;20842;-41
2022/03/05 04:02:08;;;;;;;17.93;11.23;;;2.10;71.40;;;;;;5022952;28;20494;-41
2022/03/05 04:04:35;;;;;;;18.13;11.47;;;2.00;71.50;;;;;;5016341;28;20798;-41
2022/03/05 04:09:49;;;;;;;23.33;12.20;;;2.00;71.50;;;;;;5018788;28;20487;-41
2022/03/05 04:12:15;;;;;;;20.47;10.43;;;1.90;71.70;;;;;;5017897;28;20951;-41
2022/03/05 04:14:42;;;;;;;26.63;12.60;;;1.90;71.70;;;;;;5018303;28;20443;-41
2022/03/05 04:17:10;;;;;;;24.30;11.33;;;1.90;71.70;;;;;;5018172;28;20447;-41
2022/03/05 04:19:36;;;;;;;15.40;9.30;;;1.80;71.80;;;;;;5016706;28;20818;-41
2022/03/05 04:22:03;;;;;;;24.33;11.47;;;1.80;72.30;;;;;;5017276;28;20857;-41
2022/03/05 04:24:30;;;;;;;24.57;11.67;;;1.80;72.50;;;;;;5014702;28;20473;-41
2022/03/05 04:26:57;;;;;;;21.10;10.33;;;1.80;72.40;;;;;;5003593;28;20674;-41
2022/03/05 04:29:24;;;;;;;22.90;11.60;;;1.80;72.30;;;;;;5015476;28;20495;-41
2022/03/05 04:31:51;;;;;;;25.30;13.07;;;1.80;72.30;;;;;;5019259;28;20459;-41
2022/03/05 04:34:18;;;;;;;24.10;12.63;;;1.80;72.20;;;;;;5006799;28;20448;-41
2022/03/05 04:36:45;;;;;;;19.53;11.90;;;1.80;72.20;;;;;;5017224;28;20469;-41
2022/03/05 04:39:12;;;;;;;30.23;11.87;;;1.80;72.10;;;;;;5014587;28;20945;-41
2022/03/05 04:41:39;;;;;;;30.10;13.27;;;1.80;72.10;;;;;;5016531;28;20867;-41
2022/03/05 04:44:06;;;;;;;21.50;12.53;;;1.70;72.10;;;;;;5017605;28;20459;-41
2022/03/05 04:46:33;;;;;;;21.50;11.53;;;1.60;72.20;;;;;;5016870;28;20476;-41
2022/03/05 04:49:02;;;;;;;29.73;12.73;;;1.60;72.30;;;;;;5002667;28;20491;-41
2022/03/05 04:51:29;;;;;;;24.03;12.07;;;1.60;72.30;;;;;;5015999;28;20487;-41
2022/03/05 04:53:56;;;;;;;27.77;11.17;;;1.60;72.40;;;;;;5033774;28;20467;-41
2022/03/05 04:56:22;;;;;;;21.67;10.30;;;1.50;72.60;;;;;;5002747;28;20477;-41
2022/03/05 04:58:49;;;;;;;23.17;11.40;;;1.60;72.50;;;;;;5031594;28;20483;-41
2022/03/05 05:01:18;;;;;;;27.50;11.90;;;1.60;72.60;;;;;;5016699;28;20518;-41
2022/03/05 05:03:45;;;;;;;22.67;12.83;;;1.60;72.80;;;;;;5015494;28;20521;-41
2022/03/05 05:06:12;;;;;;;25.97;11.97;;;1.50;72.90;;;;;;5018137;28;20463;-41
2022/03/05 05:08:40;;;;;;;20.70;11.30;;;1.60;72.90;;;;;;5018434;28;20466;-41
2022/03/05 05:11:07;;;;;;;32.47;13.33;;;1.60;73.10;;;;;;5015839;28;20477;-41
2022/03/05 05:13:33;;;;;;;26.70;11.73;;;1.60;72.90;;;;;;5006270;28;20455;-41
2022/03/05 05:16:00;;;;;;;21.30;12.17;;;1.60;73.10;;;;;;5016972;28;20857;-41
2022/03/05 05:18:27;;;;;;;20.80;12.60;;;1.60;73.00;;;;;;5017575;28;20475;-41
2022/03/05 05:20:54;;;;;;;22.70;11.90;;;1.60;73.10;;;;;;5016245;28;20908;-41
2022/03/05 05:23:22;;;;;;;20.87;11.47;;;1.50;73.30;;;;;;5016504;28;20888;-41
2022/03/05 05:25:49;;;;;;;21.27;13.50;;;1.50;73.30;;;;;;5015676;28;20924;-41
2022/03/05 05:28:15;;;;;;;21.00;11.53;;;1.50;73.40;;;;;;5014769;28;20465;-41
2022/03/05 05:30:46;;;;;;;21.43;11.80;;;1.50;73.30;;;;;;5012009;28;20471;-41
2022/03/05 05:33:13;;;;;;;23.07;11.90;;;1.50;73.30;;;;;;5015450;28;20462;-41
2022/03/05 05:35:40;;;;;;;21.37;11.40;;;1.50;73.30;;;;;;5033799;28;20542;-41
2022/03/05 05:38:06;;;;;;;20.73;11.80;;;1.50;73.40;;;;;;5016464;28;20943;-41
2022/03/05 05:40:34;;;;;;;24.03;13.77;;;1.50;73.30;;;;;;5016382;28;20467;-41
2022/03/05 05:43:00;;;;;;;23.90;13.00;;;1.50;73.30;;;;;;5021964;28;20497;-41
2022/03/05 05:45:27;;;;;;;30.37;13.37;;;1.50;73.50;;;;;;5017600;28;20838;-41
2022/03/05 05:47:54;;;;;;;22.63;12.17;;;1.50;73.50;;;;;;5012592;28;20488;-41
2022/03/05 05:50:21;;;;;;;25.47;12.37;;;1.50;73.50;;;;;;5017245;28;20559;-41
2022/03/05 05:52:48;;;;;;;21.50;12.60;;;1.50;73.50;;;;;;5013969;28;20460;-41
2022/03/05 05:55:14;;;;;;;25.90;12.57;;;1.50;73.50;;;;;;5018948;28;20465;-41
2022/03/05 05:57:41;;;;;;;22.87;12.80;;;1.50;73.50;;;;;;5019640;28;20463;-41
2022/03/05 06:00:09;;;;;;;26.47;13.83;;;1.50;73.70;;;;;;5021549;28;20466;-41
2022/03/05 06:02:36;;;;;;;21.17;11.70;;;1.40;73.70;;;;;;5017304;28;20594;-41
2022/03/05 06:05:03;;;;;;;24.97;13.57;;;1.40;73.80;;;;;;5021015;28;20451;-44
2022/03/05 06:07:29;;;;;;;23.00;12.23;;;1.40;73.80;;;;;;5021736;28;20500;-41
2022/03/05 06:09:56;;;;;;;23.50;13.73;;;1.40;73.90;;;;;;5021185;28;20468;-41
2022/03/05 06:12:23;;;;;;;25.00;14.57;;;1.40;74.00;;;;;;5023522;28;20843;-41
2022/03/05 06:14:50;;;;;;;22.77;11.80;;;1.40;74.00;;;;;;5002158;28;20468;-41
2022/03/05 06:17:16;;;;;;;20.10;11.23;;;1.40;74.00;;;;;;5021479;28;20481;-41
2022/03/05 06:19:44;;;;;;;25.43;13.10;;;1.40;74.00;;;;;;5021221;28;20462;-41
2022/03/05 06:22:11;;;;;;;21.47;11.70;;;1.40;74.00;;;;;;5018459;28;20517;-41
2022/03/05 06:24:37;;;;;;;27.13;13.50;;;1.40;74.00;;;;;;5019949;28;20464;-41
2022/03/05 06:27:04;;;;;;;22.90;12.70;;;1.40;74.00;;;;;;5003265;28;20462;-41
2022/03/05 06:29:31;;;;;;;26.10;13.90;;;1.40;74.00;;;;;;5016284;28;20482;-40
2022/03/05 06:31:58;;;;;;;25.57;13.33;;;1.40;74.00;;;;;;5023471;28;20743;-40
2022/03/05 06:34:27;;;;;;;29.40;14.20;;;1.40;74.10;;;;;;5008260;28;20470;-40
2022/03/05 06:36:57;;;;;;;21.83;13.37;;;1.40;74.10;;;;;;5020564;28;20834;-40
2022/03/05 06:39:24;;;;;;;23.67;13.50;;;1.40;74.20;;;;;;5016743;28;21020;-40
2022/03/05 06:41:50;;;;;;;24.27;13.30;;;1.40;74.20;;;;;;5019740;28;20498;-41
2022/03/05 06:44:17;;;;;;;26.57;13.77;;;1.50;74.20;;;;;;5020148;28;20824;-42
2022/03/05 06:46:44;;;;;;;29.60;13.57;;;1.50;74.10;;;;;;5020132;28;21090;-40
2022/03/05 06:49:11;;;;;;;24.13;14.33;;;1.60;74.10;;;;;;5032793;28;20478;-40
2022/03/05 06:51:37;;;;;;;21.73;11.67;;;1.60;74.30;;;;;;5016905;28;20463;-41
2022/03/05 06:54:04;;;;;;;33.63;15.10;;;1.60;74.30;;;;;;5021204;28;20477;-41
2022/03/05 06:56:31;;;;;;;21.67;12.63;;;1.60;74.20;;;;;;5013287;28;20465;-40
2022/03/05 06:58:58;;;;;;;24.30;12.30;;;1.60;74.40;;;;;;5013597;28;20464;-41
2022/03/05 07:01:25;;;;;;;25.90;13.33;;;1.70;74.50;;;;;;5015439;28;20526;-40
2022/03/05 07:03:52;;;;;;;25.10;13.80;;;1.70;74.20;;;;;;5016198;28;20463;-40
2022/03/05 07:06:18;;;;;;;28.10;14.40;;;1.70;74.20;;;;;;5016917;28;20473;-40
2022/03/05 07:08:45;;;;;;;25.50;12.20;;;1.70;74.10;;;;;;5020243;28;21228;-40
2022/03/05 07:11:12;;;;;;;23.27;14.00;;;1.80;74.20;;;;;;5024213;28;20820;-41
2022/03/05 07:13:38;;;;;;;26.67;14.13;;;1.80;74.20;;;;;;5004256;28;20455;-41
2022/03/05 07:16:05;;;;;;;26.97;15.07;;;1.80;74.20;;;;;;5015980;28;20470;-41
2022/03/05 07:18:37;;;;;;;25.63;15.03;;;1.90;74.30;;;;;;5021549;28;20474;-41
2022/03/05 07:21:04;;;;;;;21.30;14.10;;;2.00;74.20;;;;;;5020310;28;20498;-41
2022/03/05 07:23:31;;;;;;;25.37;12.47;;;2.00;74.20;;;;;;5015445;28;20471;-41
2022/03/05 07:26:01;;;;;;;26.60;15.30;;;2.00;74.10;;;;;;5016431;28;20455;-41
2022/03/05 07:28:28;;;;;;;27.53;14.57;;;2.10;74.10;;;;;;5016857;28;20466;-41
2022/03/05 07:30:55;;;;;;;25.93;14.67;;;2.20;73.90;;;;;;5028871;28;20452;-41
2022/03/05 07:33:23;;;;;;;31.43;15.80;;;2.20;73.70;;;;;;5030901;28;20570;-41
2022/03/05 07:35:50;;;;;;;22.20;13.10;;;2.30;73.50;;;;;;5004512;28;20467;-41
2022/03/05 07:38:16;;;;;;;24.17;13.80;;;2.40;73.20;;;;;;5008810;28;21019;-41
2022/03/05 07:40:43;;;;;;;22.43;13.83;;;2.30;73.10;;;;;;5018384;28;20460;-41
2022/03/05 07:43:12;;;;;;;25.03;15.20;;;2.40;73.10;;;;;;4999966;28;20494;-41
2022/03/05 07:45:39;;;;;;;28.63;14.50;;;2.40;72.90;;;;;;5013838;28;20468;-41
2022/03/05 07:48:06;;;;;;;23.60;14.40;;;2.40;72.90;;;;;;4985662;28;20476;-41
2022/03/05 07:50:33;;;;;;;24.53;14.33;;;2.50;72.70;;;;;;5010974;28;20471;-41
2022/03/05 07:52:59;;;;;;;25.90;14.47;;;2.70;72.40;;;;;;5014018;28;20496;-41
2022/03/05 07:55:26;;;;;;;23.23;14.00;;;2.80;72.30;;;;;;5006648;28;20487;-41
2022/03/05 07:57:53;;;;;;;21.10;13.40;;;2.80;71.90;;;;;;5015904;28;20967;-41
2022/03/05 08:00:20;;;;;;;20.80;13.87;;;2.90;71.70;;;;;;5017355;28;20469;-41
2022/03/05 08:02:49;;;;;;;27.03;14.77;;;2.90;71.40;;;;;;5017988;28;20500;-41
2022/03/05 08:05:17;;;;;;;26.93;14.57;;;2.90;71.10;;;;;;5003144;28;20512;-42
2022/03/05 08:07:43;;;;;;;22.77;13.60;;;3.00;71.10;;;;;;5013800;28;20463;-41
2022/03/05 08:10:10;;;;;;;28.10;13.43;;;3.10;70.90;;;;;;5021063;28;20471;-40
2022/03/05 08:12:37;;;;;;;24.83;13.90;;;3.20;70.80;;;;;;5012524;28;20477;-41
2022/03/05 08:15:06;;;;;;;26.20;14.33;;;3.30;70.00;;;;;;5017811;28;20464;-41
2022/03/05 08:17:33;;;;;;;28.27;16.60;;;3.50;69.70;;;;;;5013456;28;20467;-41
2022/03/05 08:20:03;;;;;;;27.87;13.90;;;3.60;69.30;;;;;;5013275;28;20476;-41
2022/03/05 08:22:31;;;;;;;20.83;12.93;;;3.70;68.90;;;;;;4998379;28;20495;-41
2022/03/05 08:24:57;;;;;;;23.70;12.43;;;3.80;68.80;;;;;;5016054;28;20522;-41
2022/03/05 08:27:24;;;;;;;29.50;16.33;;;3.90;67.80;;;;;;5014637;28;20541;-41
2022/03/05 08:29:51;;;;;;;23.80;13.90;;;4.00;67.60;;;;;;5022088;28;20903;-41
2022/03/05 08:32:18;;;;;;;22.57;13.47;;;4.10;67.00;;;;;;5016223;28;20463;-41
2022/03/05 08:34:45;;;;;;;25.83;13.73;;;4.30;66.60;;;;;;5017829;28;20451;-41
2022/03/05 08:37:12;;;;;;;25.73;15.63;;;4.40;66.50;;;;;;5013834;28;20700;-41
2022/03/05 08:39:38;;;;;;;24.37;13.30;;;4.60;66.10;;;;;;5016372;28;20459;-42
2022/03/05 08:42:07;;;;;;;23.20;13.67;;;4.80;65.60;;;;;;5000932;28;20977;-41
2022/03/05 08:44:34;;;;;;;26.60;13.90;;;4.90;64.70;;;;;;5002239;28;20820;-41
2022/03/05 08:47:01;;;;;;;28.63;14.60;;;5.00;64.50;;;;;;5017697;28;20618;-41
2022/03/05 08:49:28;;;;;;;21.97;13.30;;;5.00;63.20;;;;;;5015623;28;20459;-41
2022/03/05 08:51:55;;;;;;;24.10;14.20;;;5.00;62.70;;;;;;5030640;28;21034;-41
2022/03/05 08:54:22;;;;;;;22.40;13.03;;;5.10;62.80;;;;;;5013051;28;20503;-41
2022/03/05 08:56:49;;;;;;;25.60;14.37;;;5.10;63.00;;;;;;4998932;28;20464;-41
2022/03/05 08:59:16;;;;;;;20.63;12.17;;;5.20;63.10;;;;;;5023714;28;20468;-40
2022/03/05 09:01:43;;;;;;;23.17;14.80;;;5.30;62.90;;;;;;5015823;28;20492;-41
2022/03/05 09:04:10;;;;;;;28.37;15.73;;;5.30;63.00;;;;;;5017669;28;20443;-41
2022/03/05 09:06:38;;;;;;;28.50;15.10;;;5.40;63.00;;;;;;5018158;28;20459;-41
2022/03/05 09:09:06;;;;;;;28.40;13.60;;;5.40;62.80;;;;;;5019244;28;21155;-41
2022/03/05 09:11:32;;;;;;;26.17;14.90;;;5.50;62.90;;;;;;5011356;28;20468;-41
2022/03/05 09:13:59;;;;;;;22.40;15.20;;;5.50;62.80;;;;;;5017000;28;20751;-41
2022/03/05 09:16:26;;;;;;;23.23;13.80;;;5.50;62.80;;;;;;5017697;28;20493;-41
2022/03/05 09:18:53;;;;;;;25.87;15.87;;;5.50;62.40;;;;;;5016066;28;20903;-41
2022/03/05 09:21:19;;;;;;;25.40;14.17;;;5.50;61.80;;;;;;5013348;28;20459;-41
2022/03/05 09:23:47;;;;;;;25.87;14.20;;;5.40;61.50;;;;;;5017453;28;20954;-41
2022/03/05 09:26:15;;;;;;;26.27;14.57;;;5.40;61.60;;;;;;5015040;28;20502;-42
2022/03/05 09:28:42;;;;;;;22.63;14.43;;;5.40;61.60;;;;;;5021728;28;20452;-41
2022/03/05 09:31:08;;;;;;;24.20;15.30;;;5.40;61.50;;;;;;5006245;28;20464;-41
2022/03/05 09:33:35;;;;;;;24.83;14.87;;;5.40;61.70;;;;;;5014264;28;20463;-41
2022/03/05 09:36:03;;;;;;;25.30;14.87;;;5.40;61.70;;;;;;5018207;28;20539;-41
2022/03/05 09:38:29;;;;;;;21.57;14.90;;;5.40;62.10;;;;;;5016198;28;20844;-41
2022/03/05 09:40:56;;;;;;;28.10;13.50;;;5.50;62.60;;;;;;5004251;28;20548;-41
2022/03/05 09:43:24;;;;;;;23.67;14.63;;;5.60;62.00;;;;;;5018522;28;20483;-41
2022/03/05 09:45:51;;;;;;;23.47;13.73;;;5.70;62.00;;;;;;5005578;28;20456;-42
2022/03/05 09:48:18;;;;;;;27.50;15.00;;;5.80;61.90;;;;;;5004424;28;20549;-41
2022/03/05 09:50:45;;;;;;;27.03;15.37;;;5.90;62.00;;;;;;5024669;28;20464;-41
2022/03/05 09:53:12;;;;;;;22.73;14.03;;;6.10;61.20;;;;;;5007393;28;20981;-41
2022/03/05 09:55:38;;;;;;;22.80;14.17;;;6.20;60.70;;;;;;5017872;28;20463;-41
2022/03/05 09:58:25;;;;;;;26.67;15.57;;;6.30;60.70;;;;;;5006724;28;20455;-41
2022/03/05 10:00:52;;;;;;;24.73;13.87;;;6.40;59.90;;;;;;5018203;28;20480;-41
2022/03/05 10:03:21;;;;;;;19.83;14.10;;;6.50;59.50;;;;;;5017075;28;20881;-41
2022/03/05 10:05:49;;;;;;;24.80;14.60;;;6.70;58.90;;;;;;5036193;28;20462;-41
2022/03/05 10:08:16;;;;;;;24.37;14.10;;;6.90;58.60;;;;;;5016896;28;20452;-41
2022/03/05 10:11:01;;;;;;;23.50;13.80;;;7.20;57.60;;;;;;5005436;28;20517;-41
2022/03/05 10:13:30;;;;;;;20.67;12.23;;;7.40;56.00;;;;;;5020936;28;20626;-41
2022/03/05 10:16:04;;;;;;;21.60;14.13;;;7.60;55.00;;;;;;5022656;28;20463;-42
2022/03/05 10:18:37;;;;;;;21.27;12.53;;;7.90;54.60;;;;;;4997373;28;20467;-41
2022/03/05 10:21:08;;;;;;;22.87;13.90;;;8.20;54.50;;;;;;5017512;28;20554;-41
2022/03/05 10:23:42;;;;;;;19.20;12.50;;;8.40;54.00;;;;;;5019245;28;20921;-41
2022/03/05 10:26:09;;;;;;;22.33;14.23;;;8.70;53.00;;;;;;5021757;28;20463;-41
2022/03/05 10:28:38;;;;;;;19.87;13.20;;;9.00;51.90;;;;;;5012831;28;20448;-41
2022/03/05 10:31:08;;;;;;;21.60;13.23;;;9.30;51.20;;;;;;5020779;28;20575;-42
2022/03/05 10:33:43;;;;;;;19.47;12.53;;;9.60;50.70;;;;;;5012933;28;20471;-42
2022/03/05 10:36:12;;;;;;;17.67;10.50;;;9.80;49.70;;;;;;5022431;28;21277;-42
2022/03/05 10:38:45;;;;;;;18.30;12.30;;;10.00;46.50;;;;;;5018512;28;20830;-42
2022/03/05 10:41:17;;;;;;;20.43;12.23;;;10.30;46.90;;;;;;5017297;28;20459;-42
2022/03/05 10:44:04;;;;;;;18.50;12.07;;;10.50;46.30;;;;;;5015415;28;20571;-42
2022/03/05 10:46:40;;;;;;;23.73;13.00;;;10.80;45.50;;;;;;5020065;28;20554;-41
2022/03/05 10:49:33;;;;;;;18.90;12.70;;;10.80;44.80;;;;;;5020488;28;20455;-42
2022/03/05 10:52:00;;;;;;;14.97;11.30;;;11.10;44.80;;;;;;5018763;28;20467;-41
2022/03/05 10:54:30;;;;;;;16.83;11.93;;;11.00;44.70;;;;;;5018244;28;20484;-42
2022/03/05 10:57:06;;;;;;;17.03;13.03;;;11.10;45.40;;;;;;5007000;28;20483;-42
2022/03/05 10:59:52;;;;;;;18.30;11.53;;;11.10;44.60;;;;;;5036621;28;20924;-42
2022/03/05 11:02:23;;;;;;;19.40;11.20;;;10.90;44.30;;;;;;5021502;28;20866;-42
2022/03/05 11:04:51;;;;;;;19.47;12.40;;;11.10;44.10;;;;;;5019812;28;20452;-42
2022/03/05 11:07:19;;;;;;;20.27;11.90;;;11.10;43.90;;;;;;5023050;28;20517;-42
2022/03/05 11:09:49;;;;;;;18.40;11.10;;;11.20;44.10;;;;;;5021206;28;20535;-42
2022/03/05 11:12:19;;;;;;;18.87;13.03;;;11.20;43.40;;;;;;5025863;28;20517;-42
2022/03/05 11:14:50;;;;;;;18.53;12.67;;;11.40;42.90;;;;;;5018448;28;20506;-42
2022/03/05 11:17:18;;;;;;;17.00;11.10;;;11.40;42.10;;;;;;5015565;28;20950;-42
2022/03/05 11:19:45;;;;;;;18.13;12.50;;;11.50;42.30;;;;;;5022021;28;20451;-42
2022/03/05 11:22:14;;;;;;;18.60;11.30;;;11.40;43.80;;;;;;5016805;28;20492;-42
2022/03/05 11:24:43;;;;;;;16.27;12.40;;;11.40;43.60;;;;;;4997437;28;20483;-42
2022/03/05 11:27:16;;;;;;;13.47;11.60;;;11.40;44.00;;;;;;5020566;28;20535;-42
2022/03/05 11:30:04;;;;;;;18.73;12.40;;;11.30;43.00;;;;;;5022076;28;20451;-41
2022/03/05 11:32:33;;;;;;;15.77;9.87;;;11.30;42.90;;;;;;5004102;28;20456;-42
2022/03/05 11:35:01;;;;;;;14.53;11.60;;;11.30;42.20;;;;;;5021611;28;20456;-42
2022/03/05 11:37:34;;;;;;;17.63;11.70;;;11.30;42.30;;;;;;5020736;28;20539;-42
2022/03/05 11:40:04;;;;;;;19.20;11.40;;;11.40;42.00;;;;;;5031067;28;20976;-42
2022/03/05 11:42:34;;;;;;;14.23;10.83;;;11.50;42.10;;;;;;5023525;28;20494;-42
2022/03/05 11:45:25;;;;;;;13.87;10.43;;;11.60;42.50;;;;;;5013480;28;20896;-42
2022/03/05 11:47:51;;;;;;;16.53;11.57;;;11.60;41.50;;;;;;5034551;28;20472;-42
2022/03/05 11:50:19;;;;;;;15.47;10.13;;;11.50;41.40;;;;;;5020334;28;20522;-42
2022/03/05 11:53:09;;;;;;;18.57;11.53;;;11.50;41.50;;;;;;5007369;28;20461;-42
2022/03/05 11:55:41;;;;;;;16.33;10.20;;;11.50;41.30;;;;;;5025438;28;20550;-42
2022/03/05 11:58:12;;;;;;;16.47;11.13;;;11.40;41.40;;;;;;5033505;28;20443;-41
2022/03/05 12:00:41;;;;;;;14.43;10.30;;;11.40;41.50;;;;;;5019947;28;20457;-42
2022/03/05 12:03:08;;;;;;;18.40;11.27;;;11.30;41.70;;;;;;5009022;28;20575;-42
2022/03/05 12:05:38;;;;;;;15.83;10.97;;;11.30;41.80;;;;;;5036224;28;20452;-42
2022/03/05 12:08:05;;;;;;;15.43;10.43;;;11.30;42.20;;;;;;5035544;28;20460;-42
2022/03/05 12:10:38;;;;;;;15.10;11.77;;;11.20;41.70;;;;;;5018423;28;20463;-42
2022/03/05 12:13:07;;;;;;;15.00;10.57;;;11.30;42.00;;;;;;5015405;28;20464;-42
2022/03/05 12:15:39;;;;;;;19.60;10.63;;;11.30;41.70;;;;;;5018149;28;20476;-42
2022/03/05 12:18:12;;;;;;;17.17;11.00;;;11.30;42.50;;;;;;5020691;28;20642;-42
2022/03/05 12:20:44;;;;;;;15.23;10.67;;;11.30;42.00;;;;;;5036029;28;20474;-42
2022/03/05 12:23:19;;;;;;;18.47;10.50;;;11.30;42.10;;;;;;5003462;28;20487;-42
2022/03/05 12:25:48;;;;;;;16.70;9.87;;;11.20;42.00;;;;;;5017505;28;20492;-42
2022/03/05 12:28:23;;;;;;;13.77;10.47;;;11.20;43.50;;;;;;5015438;28;20460;-42
2022/03/05 12:30:53;;;;;;;14.10;10.50;;;11.20;44.00;;;;;;5015201;28;20470;-42
2022/03/05 12:33:20;;;;;;;16.67;10.50;;;11.20;43.50;;;;;;5018394;28;20701;-42
2022/03/05 12:35:48;;;;;;;13.53;10.00;;;11.20;42.80;;;;;;5018038;28;20890;-42
2022/03/05 12:38:20;;;;;;;16.83;11.43;;;11.30;42.90;;;;;;5017259;28;20455;-42
2022/03/05 12:40:47;;;;;;;11.77;8.83;;;11.20;43.30;;;;;;5017779;28;20448;-42
2022/03/05 12:43:14;;;;;;;14.80;10.83;;;11.30;42.80;;;;;;5018056;28;20492;-42